Airfield :







YOU CAN JOIN US ON...

 
LOGIN :

Register | Disclaimer

   EN    FR    IT 

 









Legend :    VFR   Marginal VFR   IFR   Intensive IFR   Very Intensive IFR
Visi :
Ceiling :
>= 8 km
>= 3000ft
5 to 8 km
1000 to 3000 ft
1500m to 5 km
500 to 1000 ft
800 to 1500m
200 to 500 ft
< 800m
< 200 ft
Symbols :   Thunderstorms  Fog  Heavy snow  Heavy precipitations  Wind > 20 kt






- Airport Elevation : 92 ft
- IATA code : YZX


CYZX - CFB Greenwood

CURRENT METAR :
  • 230500Z 00000KT 15SM FEW016 SCT090 12/11 A2987 RMK SC2AC1 SLP114

EXPIRED METARs :
  • 230400Z 22003KT 15SM FEW026 BKN090 14/13 A2988 RMK SC2AC3 SLP119
  • 230300Z 24004KT 15SM SCT026 BKN090 16/14 A2987 RMK SC4AC1 SLP117

TAF TAF CYZX
Valid from the 23 at 00:00 until the 24 at 00:00 UTC


222330Z 2300/2324 21007KT P6SM SCT030 BKN070
TEMPO 2300/2302 BKN030
FM230200 21005KT P6SM SCT012 OVC025
TEMPO 2302/2306 OVC012
FM230600 22005KT P6SM SCT008 BKN015
PROB30 2308/2312 1SM BR OVC005
FM231500 VRB03KT P6SM BKN030
FM231800 VRB03KT P6SM -SHRA BKN030
FM232000 VRB03KT P6SM -SHRA OVC015
FM232200 VRB03KT 5SM -SHRA -DZ BR OVC008 RMK NXT FCST BY 230600Z
CZQM FIR / North America



MET'MAP, your aeronautical weather chart ! - Copyright ORBIFLY December 2007 - Disclaimer

ORBIFLY MET'MAP TEAM :

Programming & Development : Alexandra Zaïnal
Concept & original design : Baudouin d'Aumeries
Assistance for programming : Marc-Olivier Méhu
Technical & hardware support : Manuel Goepfert

Contact : metmap@orbifly.com




SOURCES & CREDITS :

   NOAA